sensor_id;sensor_type;location;lat;lon;timestamp;pressure;altitude;pressure_sealevel;temperature;humidity
9746;BME280;4912;50.836;12.958;2023-08-24T00:02:13;98126.81;;;22.26;67.33
9746;BME280;4912;50.836;12.958;2023-08-24T00:04:44;98131.47;;;22.23;67.69
9746;BME280;4912;50.836;12.958;2023-08-24T00:07:14;98126.16;;;22.20;67.66
9746;BME280;4912;50.836;12.958;2023-08-24T00:09:44;98127.22;;;22.17;67.78
9746;BME280;4912;50.836;12.958;2023-08-24T00:12:17;98130.38;;;22.13;67.74
9746;BME280;4912;50.836;12.958;2023-08-24T00:14:48;98127.84;;;22.10;67.78
9746;BME280;4912;50.836;12.958;2023-08-24T00:17:19;98124.25;;;22.09;67.44
9746;BME280;4912;50.836;12.958;2023-08-24T00:19:50;98116.28;;;22.13;67.15
9746;BME280;4912;50.836;12.958;2023-08-24T00:22:20;98117.66;;;22.07;67.48
9746;BME280;4912;50.836;12.958;2023-08-24T00:24:51;98116.13;;;22.05;67.32
9746;BME280;4912;50.836;12.958;2023-08-24T00:27:24;98116.47;;;22.02;67.61
9746;BME280;4912;50.836;12.958;2023-08-24T00:29:54;98113.84;;;22.04;67.46
9746;BME280;4912;50.836;12.958;2023-08-24T00:32:24;98103.91;;;22.03;67.53
9746;BME280;4912;50.836;12.958;2023-08-24T00:34:55;98106.38;;;22.07;66.52
9746;BME280;4912;50.836;12.958;2023-08-24T00:37:27;98105.75;;;22.14;65.70
9746;BME280;4912;50.836;12.958;2023-08-24T00:40:00;98103.91;;;22.16;65.73
9746;BME280;4912;50.836;12.958;2023-08-24T00:42:37;98102.94;;;22.14;66.01
9746;BME280;4912;50.836;12.958;2023-08-24T00:45:10;98104.13;;;22.18;65.49
9746;BME280;4912;50.836;12.958;2023-08-24T00:47:44;98100.13;;;22.14;66.10
9746;BME280;4912;50.836;12.958;2023-08-24T00:50:17;98102.94;;;22.14;66.13
9746;BME280;4912;50.836;12.958;2023-08-24T00:52:49;98106.81;;;22.11;66.21
9746;BME280;4912;50.836;12.958;2023-08-24T00:55:20;98102.56;;;22.04;66.22
9746;BME280;4912;50.836;12.958;2023-08-24T00:57:56;98106.91;;;22.05;65.83
9746;BME280;4912;50.836;12.958;2023-08-24T01:00:27;98106.72;;;22.03;65.79
9746;BME280;4912;50.836;12.958;2023-08-24T01:02:57;98099.09;;;21.98;65.80
9746;BME280;4912;50.836;12.958;2023-08-24T01:05:28;98101.16;;;21.97;66.12
9746;BME280;4912;50.836;12.958;2023-08-24T01:07:59;98100.94;;;21.95;66.16
9746;BME280;4912;50.836;12.958;2023-08-24T01:10:43;98099.41;;;21.94;66.06
9746;BME280;4912;50.836;12.958;2023-08-24T01:13:25;98093.00;;;21.94;65.98
9746;BME280;4912;50.836;12.958;2023-08-24T01:16:06;98087.69;;;21.90;66.55
9746;BME280;4912;50.836;12.958;2023-08-24T01:18:41;98093.09;;;21.88;66.55
9746;BME280;4912;50.836;12.958;2023-08-24T01:21:13;98095.69;;;21.86;66.37
9746;BME280;4912;50.836;12.958;2023-08-24T01:23:53;98099.97;;;21.74;66.39
9746;BME280;4912;50.836;12.958;2023-08-24T01:26:29;98106.56;;;21.63;66.79
9746;BME280;4912;50.836;12.958;2023-08-24T01:29:01;98110.22;;;21.58;67.20
9746;BME280;4912;50.836;12.958;2023-08-24T01:31:34;98108.03;;;21.51;67.59
9746;BME280;4912;50.836;12.958;2023-08-24T01:34:05;98097.53;;;21.52;67.92
9746;BME280;4912;50.836;12.958;2023-08-24T01:36:35;98103.91;;;21.52;68.50
9746;BME280;4912;50.836;12.958;2023-08-24T01:39:12;98107.19;;;21.56;68.01
9746;BME280;4912;50.836;12.958;2023-08-24T01:41:52;98112.38;;;21.52;68.30
9746;BME280;4912;50.836;12.958;2023-08-24T01:44:27;98095.25;;;21.50;68.19
9746;BME280;4912;50.836;12.958;2023-08-24T01:47:01;98100.13;;;21.50;68.59
9746;BME280;4912;50.836;12.958;2023-08-24T01:49:34;98099.56;;;21.51;68.47
9746;BME280;4912;50.836;12.958;2023-08-24T01:52:05;98095.78;;;21.49;68.42
9746;BME280;4912;50.836;12.958;2023-08-24T01:54:36;98097.63;;;21.46;68.42
9746;BME280;4912;50.836;12.958;2023-08-24T01:57:10;98097.16;;;21.42;69.08
9746;BME280;4912;50.836;12.958;2023-08-24T01:59:40;98092.59;;;21.39;68.72
9746;BME280;4912;50.836;12.958;2023-08-24T02:02:11;98091.38;;;21.35;69.41
9746;BME280;4912;50.836;12.958;2023-08-24T02:04:41;98089.09;;;21.33;69.44
9746;BME280;4912;50.836;12.958;2023-08-24T02:07:12;98090.19;;;21.30;69.54
9746;BME280;4912;50.836;12.958;2023-08-24T02:09:43;98087.38;;;21.30;69.26
9746;BME280;4912;50.836;12.958;2023-08-24T02:12:16;98086.94;;;21.26;69.19
9746;BME280;4912;50.836;12.958;2023-08-24T02:14:47;98082.34;;;21.23;69.62
9746;BME280;4912;50.836;12.958;2023-08-24T02:17:17;98087.97;;;21.23;69.59
9746;BME280;4912;50.836;12.958;2023-08-24T02:19:48;98086.47;;;21.22;69.54
9746;BME280;4912;50.836;12.958;2023-08-24T02:22:18;98082.88;;;21.21;69.12
9746;BME280;4912;50.836;12.958;2023-08-24T02:24:49;98088.31;;;21.19;68.75
9746;BME280;4912;50.836;12.958;2023-08-24T02:27:22;98085.78;;;21.16;69.15
9746;BME280;4912;50.836;12.958;2023-08-24T02:29:52;98085.06;;;21.10;69.15
9746;BME280;4912;50.836;12.958;2023-08-24T02:32:23;98088.44;;;21.08;69.62
9746;BME280;4912;50.836;12.958;2023-08-24T02:34:54;98084.63;;;21.06;70.57
9746;BME280;4912;50.836;12.958;2023-08-24T02:37:24;98087.19;;;21.04;70.54
9746;BME280;4912;50.836;12.958;2023-08-24T02:39:55;98088.50;;;21.03;69.84
9746;BME280;4912;50.836;12.958;2023-08-24T02:42:30;98077.03;;;21.01;70.16
9746;BME280;4912;50.836;12.958;2023-08-24T02:45:00;98071.69;;;20.97;70.27
9746;BME280;4912;50.836;12.958;2023-08-24T02:47:31;98084.00;;;20.94;70.54
9746;BME280;4912;50.836;12.958;2023-08-24T02:50:06;98083.00;;;20.92;70.59
9746;BME280;4912;50.836;12.958;2023-08-24T02:52:37;98073.06;;;20.91;70.72
9746;BME280;4912;50.836;12.958;2023-08-24T02:55:09;98071.31;;;20.88;70.95
9746;BME280;4912;50.836;12.958;2023-08-24T02:57:44;98071.53;;;20.90;70.98
9746;BME280;4912;50.836;12.958;2023-08-24T03:00:15;98066.44;;;20.88;70.57
9746;BME280;4912;50.836;12.958;2023-08-24T03:02:46;98055.44;;;20.90;70.74
9746;BME280;4912;50.836;12.958;2023-08-24T03:05:17;98064.63;;;20.91;70.73
9746;BME280;4912;50.836;12.958;2023-08-24T03:07:49;98061.59;;;20.89;70.78
9746;BME280;4912;50.836;12.958;2023-08-24T03:10:20;98056.78;;;20.83;70.86
9746;BME280;4912;50.836;12.958;2023-08-24T03:12:53;98058.41;;;20.79;71.04
9746;BME280;4912;50.836;12.958;2023-08-24T03:15:23;98059.69;;;20.78;70.77
9746;BME280;4912;50.836;12.958;2023-08-24T03:17:54;98058.91;;;20.77;70.97
9746;BME280;4912;50.836;12.958;2023-08-24T03:20:26;98060.22;;;20.76;71.48
9746;BME280;4912;50.836;12.958;2023-08-24T03:22:56;98051.53;;;20.74;71.76
9746;BME280;4912;50.836;12.958;2023-08-24T03:25:27;98057.91;;;20.75;71.67
9746;BME280;4912;50.836;12.958;2023-08-24T03:28:00;98057.84;;;20.80;71.41
9746;BME280;4912;50.836;12.958;2023-08-24T03:30:31;98061.50;;;20.75;71.39
9746;BME280;4912;50.836;12.958;2023-08-24T03:33:02;98068.47;;;20.69;71.87
9746;BME280;4912;50.836;12.958;2023-08-24T03:35:34;98071.84;;;20.67;71.69
9746;BME280;4912;50.836;12.958;2023-08-24T03:38:05;98067.19;;;20.70;71.69
9746;BME280;4912;50.836;12.958;2023-08-24T03:40:36;98066.22;;;20.67;71.72
9746;BME280;4912;50.836;12.958;2023-08-24T03:43:10;98062.72;;;20.61;71.86
9746;BME280;4912;50.836;12.958;2023-08-24T03:45:42;98063.69;;;20.64;71.31
9746;BME280;4912;50.836;12.958;2023-08-24T03:48:13;98068.03;;;20.65;71.41
9746;BME280;4912;50.836;12.958;2023-08-24T03:50:43;98066.25;;;20.62;71.92
9746;BME280;4912;50.836;12.958;2023-08-24T03:53:14;98071.94;;;20.56;71.89
9746;BME280;4912;50.836;12.958;2023-08-24T03:55:47;98073.03;;;20.53;72.29
9746;BME280;4912;50.836;12.958;2023-08-24T03:58:22;98077.44;;;20.49;72.58
9746;BME280;4912;50.836;12.958;2023-08-24T04:00:53;98063.59;;;20.51;72.59
9746;BME280;4912;50.836;12.958;2023-08-24T04:03:24;98062.69;;;20.42;72.73
9746;BME280;4912;50.836;12.958;2023-08-24T04:05:55;98065.31;;;20.35;73.38
9746;BME280;4912;50.836;12.958;2023-08-24T04:08:25;98059.22;;;20.31;73.42
9746;BME280;4912;50.836;12.958;2023-08-24T04:10:56;98061.00;;;20.28;73.60
9746;BME280;4912;50.836;12.958;2023-08-24T04:13:29;98055.91;;;20.27;73.65
9746;BME280;4912;50.836;12.958;2023-08-24T04:15:59;98061.53;;;20.27;73.84
9746;BME280;4912;50.836;12.958;2023-08-24T04:18:31;98060.03;;;20.26;73.68
9746;BME280;4912;50.836;12.958;2023-08-24T04:21:01;98070.19;;;20.29;73.55
9746;BME280;4912;50.836;12.958;2023-08-24T04:23:32;98072.78;;;20.27;73.52
9746;BME280;4912;50.836;12.958;2023-08-24T04:26:03;98061.78;;;20.29;73.23
9746;BME280;4912;50.836;12.958;2023-08-24T04:28:37;98072.00;;;20.26;73.57
9746;BME280;4912;50.836;12.958;2023-08-24T04:31:07;98074.09;;;20.26;73.78
9746;BME280;4912;50.836;12.958;2023-08-24T04:33:38;98072.56;;;20.25;74.24
9746;BME280;4912;50.836;12.958;2023-08-24T04:36:08;98069.97;;;20.27;74.34
9746;BME280;4912;50.836;12.958;2023-08-24T04:38:38;98072.78;;;20.27;74.03
9746;BME280;4912;50.836;12.958;2023-08-24T04:41:09;98073.00;;;20.29;73.90
9746;BME280;4912;50.836;12.958;2023-08-24T04:43:42;98074.03;;;20.31;74.15
9746;BME280;4912;50.836;12.958;2023-08-24T04:46:13;98075.03;;;20.34;74.27
9746;BME280;4912;50.836;12.958;2023-08-24T04:48:43;98071.69;;;20.35;73.55
9746;BME280;4912;50.836;12.958;2023-08-24T04:51:14;98075.03;;;20.34;73.74
9746;BME280;4912;50.836;12.958;2023-08-24T04:53:44;98069.41;;;20.34;73.67
9746;BME280;4912;50.836;12.958;2023-08-24T04:56:15;98077.00;;;20.39;73.60
9746;BME280;4912;50.836;12.958;2023-08-24T04:58:55;98080.88;;;20.36;73.87
9746;BME280;4912;50.836;12.958;2023-08-24T05:01:27;98074.97;;;20.39;73.68
9746;BME280;4912;50.836;12.958;2023-08-24T05:03:58;98075.97;;;20.42;74.18
9746;BME280;4912;50.836;12.958;2023-08-24T05:06:29;98077.50;;;20.43;73.92
9746;BME280;4912;50.836;12.958;2023-08-24T05:08:59;98073.38;;;20.44;74.30
9746;BME280;4912;50.836;12.958;2023-08-24T05:11:30;98078.97;;;20.50;73.94
9746;BME280;4912;50.836;12.958;2023-08-24T05:14:03;98071.22;;;20.56;74.07
9746;BME280;4912;50.836;12.958;2023-08-24T05:16:33;98073.88;;;20.67;73.52
9746;BME280;4912;50.836;12.958;2023-08-24T05:19:04;98066.91;;;20.73;73.67
9746;BME280;4912;50.836;12.958;2023-08-24T05:21:34;98062.19;;;20.81;73.27
9746;BME280;4912;50.836;12.958;2023-08-24T05:24:05;98052.38;;;20.88;73.89
9746;BME280;4912;50.836;12.958;2023-08-24T05:26:36;98060.97;;;20.96;73.90
9746;BME280;4912;50.836;12.958;2023-08-24T05:29:10;98067.50;;;21.04;73.57
9746;BME280;4912;50.836;12.958;2023-08-24T05:31:40;98065.31;;;21.15;73.52
9746;BME280;4912;50.836;12.958;2023-08-24T05:34:10;98072.94;;;21.20;73.47
9746;BME280;4912;50.836;12.958;2023-08-24T05:36:41;98064.41;;;21.26;73.17
9746;BME280;4912;50.836;12.958;2023-08-24T05:39:11;98072.69;;;21.37;72.64
9746;BME280;4912;50.836;12.958;2023-08-24T05:41:42;98071.84;;;21.42;73.08
9746;BME280;4912;50.836;12.958;2023-08-24T05:44:15;98064.50;;;21.52;71.99
9746;BME280;4912;50.836;12.958;2023-08-24T05:46:45;98068.41;;;21.62;70.90
9746;BME280;4912;50.836;12.958;2023-08-24T05:49:16;98064.13;;;21.75;70.72
9746;BME280;4912;50.836;12.958;2023-08-24T05:51:49;98067.41;;;21.92;71.35
9746;BME280;4912;50.836;12.958;2023-08-24T05:54:21;98073.34;;;22.07;70.68
9746;BME280;4912;50.836;12.958;2023-08-24T05:56:51;98063.16;;;22.17;69.24
9746;BME280;4912;50.836;12.958;2023-08-24T05:59:24;98062.94;;;22.28;67.95
9746;BME280;4912;50.836;12.958;2023-08-24T06:01:55;98054.47;;;22.41;67.45
9746;BME280;4912;50.836;12.958;2023-08-24T06:04:25;98067.38;;;22.63;68.07
9746;BME280;4912;50.836;12.958;2023-08-24T06:06:58;98065.53;;;22.79;67.23
9746;BME280;4912;50.836;12.958;2023-08-24T06:09:31;98068.19;;;22.98;65.75
9746;BME280;4912;50.836;12.958;2023-08-24T06:12:02;98056.88;;;23.11;66.31
9746;BME280;4912;50.836;12.958;2023-08-24T06:14:36;98050.66;;;23.25;66.01
9746;BME280;4912;50.836;12.958;2023-08-24T06:17:07;98053.97;;;23.37;64.08
9746;BME280;4912;50.836;12.958;2023-08-24T06:19:37;98063.16;;;23.51;63.45
9746;BME280;4912;50.836;12.958;2023-08-24T06:22:08;98053.53;;;23.67;64.08
9746;BME280;4912;50.836;12.958;2023-08-24T06:24:39;98057.50;;;23.92;63.71
9746;BME280;4912;50.836;12.958;2023-08-24T06:27:09;98053.50;;;24.08;62.07
9746;BME280;4912;50.836;12.958;2023-08-24T06:29:45;98051.00;;;24.26;62.48
9746;BME280;4912;50.836;12.958;2023-08-24T06:32:15;98051.69;;;24.47;62.54
9746;BME280;4912;50.836;12.958;2023-08-24T06:34:45;98045.53;;;24.64;61.44
9746;BME280;4912;50.836;12.958;2023-08-24T06:37:16;98045.25;;;24.82;61.96
9746;BME280;4912;50.836;12.958;2023-08-24T06:39:46;98050.63;;;25.01;61.17
9746;BME280;4912;50.836;12.958;2023-08-24T06:42:17;98058.38;;;25.01;60.94
9746;BME280;4912;50.836;12.958;2023-08-24T06:44:50;98057.88;;;25.25;60.59
9746;BME280;4912;50.836;12.958;2023-08-24T06:47:20;98044.50;;;25.48;60.11
9746;BME280;4912;50.836;12.958;2023-08-24T06:49:51;98043.22;;;25.64;59.81
9746;BME280;4912;50.836;12.958;2023-08-24T06:52:22;98037.38;;;25.78;57.49
9746;BME280;4912;50.836;12.958;2023-08-24T06:54:52;98033.59;;;25.98;57.75
9746;BME280;4912;50.836;12.958;2023-08-24T06:57:23;98033.00;;;26.22;56.82
9746;BME280;4912;50.836;12.958;2023-08-24T06:59:56;98033.38;;;26.41;56.05
9746;BME280;4912;50.836;12.958;2023-08-24T07:02:34;98025.53;;;26.65;55.52
9746;BME280;4912;50.836;12.958;2023-08-24T07:05:05;98021.91;;;26.79;55.81
9746;BME280;4912;50.836;12.958;2023-08-24T07:07:36;98017.88;;;26.98;54.89
9746;BME280;4912;50.836;12.958;2023-08-24T07:10:08;98017.56;;;27.18;54.83
9746;BME280;4912;50.836;12.958;2023-08-24T07:12:39;98023.66;;;27.40;54.25
9746;BME280;4912;50.836;12.958;2023-08-24T07:15:14;98020.91;;;27.57;53.01
9746;BME280;4912;50.836;12.958;2023-08-24T07:17:45;98018.47;;;27.78;52.86
9746;BME280;4912;50.836;12.958;2023-08-24T07:20:16;98021.69;;;27.99;52.42
9746;BME280;4912;50.836;12.958;2023-08-24T07:22:47;98033.19;;;28.09;52.13
9746;BME280;4912;50.836;12.958;2023-08-24T07:25:18;98024.03;;;28.35;52.90
9746;BME280;4912;50.836;12.958;2023-08-24T07:27:48;98026.63;;;28.58;50.67
9746;BME280;4912;50.836;12.958;2023-08-24T07:30:24;98023.97;;;28.77;49.42
9746;BME280;4912;50.836;12.958;2023-08-24T07:33:00;98026.53;;;29.00;48.94
9746;BME280;4912;50.836;12.958;2023-08-24T07:35:31;98023.81;;;29.19;48.09
9746;BME280;4912;50.836;12.958;2023-08-24T07:38:02;98030.47;;;29.31;44.88
9746;BME280;4912;50.836;12.958;2023-08-24T07:40:33;98025.28;;;29.38;44.46
9746;BME280;4912;50.836;12.958;2023-08-24T07:43:04;98029.88;;;29.60;45.38
9746;BME280;4912;50.836;12.958;2023-08-24T07:45:37;98026.78;;;29.75;44.05
9746;BME280;4912;50.836;12.958;2023-08-24T07:48:08;98026.53;;;29.81;43.34
9746;BME280;4912;50.836;12.958;2023-08-24T07:50:39;98029.31;;;29.98;42.43
9746;BME280;4912;50.836;12.958;2023-08-24T07:53:09;98025.13;;;30.18;43.00
9746;BME280;4912;50.836;12.958;2023-08-24T07:55:42;98027.09;;;30.35;42.44
9746;BME280;4912;50.836;12.958;2023-08-24T07:58:14;98025.50;;;30.51;42.00
9746;BME280;4912;50.836;12.958;2023-08-24T08:00:49;98028.34;;;30.61;40.73
9746;BME280;4912;50.836;12.958;2023-08-24T08:03:20;98033.31;;;30.70;40.54
9746;BME280;4912;50.836;12.958;2023-08-24T08:05:50;98037.22;;;31.03;40.54
9746;BME280;4912;50.836;12.958;2023-08-24T08:08:21;98027.09;;;31.31;39.68
9746;BME280;4912;50.836;12.958;2023-08-24T08:10:57;98040.97;;;31.75;37.47
9746;BME280;4912;50.836;12.958;2023-08-24T08:13:29;98029.91;;;32.22;37.95
9746;BME280;4912;50.836;12.958;2023-08-24T08:16:06;98023.69;;;32.68;35.74
9746;BME280;4912;50.836;12.958;2023-08-24T08:18:38;98030.03;;;33.32;37.02
9746;BME280;4912;50.836;12.958;2023-08-24T08:21:09;98015.97;;;34.06;36.58
9746;BME280;4912;50.836;12.958;2023-08-24T08:23:41;98014.88;;;34.71;33.99
9746;BME280;4912;50.836;12.958;2023-08-24T08:26:12;98016.81;;;35.56;32.86
9746;BME280;4912;50.836;12.958;2023-08-24T08:28:43;98009.72;;;36.26;31.20
9746;BME280;4912;50.836;12.958;2023-08-24T08:31:17;98003.50;;;36.88;30.26
9746;BME280;4912;50.836;12.958;2023-08-24T08:33:48;97990.22;;;37.42;28.79
9746;BME280;4912;50.836;12.958;2023-08-24T08:36:19;97997.22;;;37.84;28.61
9746;BME280;4912;50.836;12.958;2023-08-24T08:38:50;97988.44;;;38.13;27.67
9746;BME280;4912;50.836;12.958;2023-08-24T08:41:22;97989.22;;;38.65;27.80
9746;BME280;4912;50.836;12.958;2023-08-24T08:43:55;97986.94;;;38.97;26.85
9746;BME280;4912;50.836;12.958;2023-08-24T08:46:28;97986.31;;;39.36;27.19
9746;BME280;4912;50.836;12.958;2023-08-24T08:49:00;97989.44;;;39.42;25.53
9746;BME280;4912;50.836;12.958;2023-08-24T08:51:31;97984.91;;;39.19;25.67
9746;BME280;4912;50.836;12.958;2023-08-24T08:54:02;97978.78;;;39.28;25.25
9746;BME280;4912;50.836;12.958;2023-08-24T08:56:33;97977.97;;;39.63;26.02
9746;BME280;4912;50.836;12.958;2023-08-24T08:59:07;97977.53;;;40.10;25.86
9746;BME280;4912;50.836;12.958;2023-08-24T09:01:41;97969.91;;;39.99;25.00
9746;BME280;4912;50.836;12.958;2023-08-24T09:04:15;97970.56;;;39.78;25.28
9746;BME280;4912;50.836;12.958;2023-08-24T09:06:46;97973.78;;;39.86;25.44
9746;BME280;4912;50.836;12.958;2023-08-24T09:09:17;97968.63;;;40.04;25.18
9746;BME280;4912;50.836;12.958;2023-08-24T09:11:47;97969.91;;;39.99;24.26
9746;BME280;4912;50.836;12.958;2023-08-24T09:14:18;97962.38;;;39.72;24.61
9746;BME280;4912;50.836;12.958;2023-08-24T09:16:51;97954.69;;;40.21;24.70
9746;BME280;4912;50.836;12.958;2023-08-24T09:19:28;97952.00;;;40.46;24.46
9746;BME280;4912;50.836;12.958;2023-08-24T09:22:00;97947.94;;;40.77;23.94
9746;BME280;4912;50.836;12.958;2023-08-24T09:24:35;97935.00;;;40.80;24.39
9746;BME280;4912;50.836;12.958;2023-08-24T09:27:15;97941.84;;;40.91;24.19
9746;BME280;4912;50.836;12.958;2023-08-24T09:29:50;97949.19;;;41.16;24.04
9746;BME280;4912;50.836;12.958;2023-08-24T09:32:27;97957.22;;;40.96;23.82
9746;BME280;4912;50.836;12.958;2023-08-24T09:35:02;97961.66;;;39.92;24.12
9746;BME280;4912;50.836;12.958;2023-08-24T09:37:34;97940.97;;;38.69;26.08
9746;BME280;4912;50.836;12.958;2023-08-24T09:40:07;97936.38;;;37.80;27.11
9746;BME280;4912;50.836;12.958;2023-08-24T09:42:40;97936.59;;;37.52;27.60
9746;BME280;4912;50.836;12.958;2023-08-24T09:45:12;97930.53;;;37.15;27.91
9746;BME280;4912;50.836;12.958;2023-08-24T09:47:49;97933.44;;;36.56;28.32
9746;BME280;4912;50.836;12.958;2023-08-24T09:50:22;97928.34;;;36.41;28.07
9746;BME280;4912;50.836;12.958;2023-08-24T09:52:54;97924.94;;;36.44;28.36
9746;BME280;4912;50.836;12.958;2023-08-24T09:55:31;97921.06;;;35.97;29.23
9746;BME280;4912;50.836;12.958;2023-08-24T09:58:07;97928.94;;;36.24;29.29
9746;BME280;4912;50.836;12.958;2023-08-24T10:00:38;97917.31;;;35.67;29.72
9746;BME280;4912;50.836;12.958;2023-08-24T10:03:13;97920.31;;;35.83;30.04
9746;BME280;4912;50.836;12.958;2023-08-24T10:05:50;97908.84;;;36.12;30.40
9746;BME280;4912;50.836;12.958;2023-08-24T10:08:36;97915.81;;;36.50;30.30
9746;BME280;4912;50.836;12.958;2023-08-24T10:11:08;97917.44;;;35.96;29.80
9746;BME280;4912;50.836;12.958;2023-08-24T10:13:48;97920.75;;;35.77;30.76
9746;BME280;4912;50.836;12.958;2023-08-24T10:16:21;97918.69;;;35.39;30.31
9746;BME280;4912;50.836;12.958;2023-08-24T10:18:55;97918.09;;;35.15;30.91
9746;BME280;4912;50.836;12.958;2023-08-24T10:21:27;97907.97;;;35.14;31.78
9746;BME280;4912;50.836;12.958;2023-08-24T10:24:01;97898.31;;;34.82;31.69
9746;BME280;4912;50.836;12.958;2023-08-24T10:26:33;97912.97;;;34.49;32.24
9746;BME280;4912;50.836;12.958;2023-08-24T10:29:05;97913.66;;;33.76;32.95
9746;BME280;4912;50.836;12.958;2023-08-24T10:31:36;97917.28;;;33.18;34.14
9746;BME280;4912;50.836;12.958;2023-08-24T10:34:10;97915.06;;;32.83;34.34
9746;BME280;4912;50.836;12.958;2023-08-24T10:36:41;97908.81;;;32.75;34.79
9746;BME280;4912;50.836;12.958;2023-08-24T10:39:12;97911.88;;;32.56;34.67
9746;BME280;4912;50.836;12.958;2023-08-24T10:41:49;97909.97;;;32.49;35.31
9746;BME280;4912;50.836;12.958;2023-08-24T10:44:21;97905.78;;;32.29;36.74
9746;BME280;4912;50.836;12.958;2023-08-24T10:47:13;97913.81;;;31.99;36.37
9746;BME280;4912;50.836;12.958;2023-08-24T10:49:58;97917.69;;;31.52;37.06
9746;BME280;4912;50.836;12.958;2023-08-24T10:52:34;97904.88;;;31.31;38.17
9746;BME280;4912;50.836;12.958;2023-08-24T10:55:22;97895.91;;;31.16;38.38
9746;BME280;4912;50.836;12.958;2023-08-24T10:57:57;97886.44;;;31.13;37.02
9746;BME280;4912;50.836;12.958;2023-08-24T11:00:29;97889.41;;;31.25;38.34
9746;BME280;4912;50.836;12.958;2023-08-24T11:03:00;97869.75;;;31.41;38.79
9746;BME280;4912;50.836;12.958;2023-08-24T11:05:34;97845.28;;;31.80;39.93
9746;BME280;4912;50.836;12.958;2023-08-24T11:08:06;97822.56;;;32.15;40.46
9746;BME280;4912;50.836;12.958;2023-08-24T11:10:45;97802.16;;;31.99;39.72
9746;BME280;4912;50.836;12.958;2023-08-24T11:13:18;97793.09;;;31.70;39.22
9746;BME280;4912;50.836;12.958;2023-08-24T11:15:50;97781.78;;;31.51;39.06
9746;BME280;4912;50.836;12.958;2023-08-24T11:18:26;97785.59;;;31.44;39.43
9746;BME280;4912;50.836;12.958;2023-08-24T11:21:00;97781.41;;;31.35;39.30
9746;BME280;4912;50.836;12.958;2023-08-24T11:23:32;97781.50;;;31.25;40.65
9746;BME280;4912;50.836;12.958;2023-08-24T11:26:03;97775.63;;;31.23;39.88
9746;BME280;4912;50.836;12.958;2023-08-24T11:28:34;97770.41;;;31.20;39.74
9746;BME280;4912;50.836;12.958;2023-08-24T11:31:09;97766.53;;;31.15;40.35
9746;BME280;4912;50.836;12.958;2023-08-24T11:33:42;97776.75;;;31.40;40.67
9746;BME280;4912;50.836;12.958;2023-08-24T11:36:16;97782.44;;;31.82;39.50
9746;BME280;4912;50.836;12.958;2023-08-24T11:38:46;97780.63;;;32.20;38.79
9746;BME280;4912;50.836;12.958;2023-08-24T11:41:18;97782.25;;;32.34;38.33
9746;BME280;4912;50.836;12.958;2023-08-24T11:43:49;97785.03;;;32.44;38.11
9746;BME280;4912;50.836;12.958;2023-08-24T11:46:44;97787.09;;;32.20;38.84
9746;BME280;4912;50.836;12.958;2023-08-24T11:49:15;97791.81;;;32.16;39.11
9746;BME280;4912;50.836;12.958;2023-08-24T11:51:50;97802.44;;;32.03;38.84
9746;BME280;4912;50.836;12.958;2023-08-24T11:54:20;97799.97;;;31.55;39.61
9746;BME280;4912;50.836;12.958;2023-08-24T11:56:51;97796.63;;;31.38;40.16
9746;BME280;4912;50.836;12.958;2023-08-24T11:59:22;97791.28;;;31.22;40.70
9746;BME280;4912;50.836;12.958;2023-08-24T12:01:53;97785.03;;;31.14;41.19
9746;BME280;4912;50.836;12.958;2023-08-24T12:04:24;97776.03;;;31.08;41.15
9746;BME280;4912;50.836;12.958;2023-08-24T12:06:57;97771.00;;;31.18;41.17
9746;BME280;4912;50.836;12.958;2023-08-24T12:09:29;97778.31;;;31.31;41.09
9746;BME280;4912;50.836;12.958;2023-08-24T12:11:59;97770.94;;;31.49;41.39
9746;BME280;4912;50.836;12.958;2023-08-24T12:14:40;97767.44;;;31.93;40.94
9746;BME280;4912;50.836;12.958;2023-08-24T12:17:10;97763.53;;;32.78;39.32
9746;BME280;4912;50.836;12.958;2023-08-24T12:19:41;97761.06;;;34.43;37.11
9746;BME280;4912;50.836;12.958;2023-08-24T12:22:16;97762.00;;;34.09;36.90
9746;BME280;4912;50.836;12.958;2023-08-24T12:24:47;97756.97;;;33.47;36.92
9746;BME280;4912;50.836;12.958;2023-08-24T12:27:18;97760.88;;;33.17;37.59
9746;BME280;4912;50.836;12.958;2023-08-24T12:29:49;97748.31;;;33.10;37.68
9746;BME280;4912;50.836;12.958;2023-08-24T12:32:21;97747.56;;;33.21;37.23
9746;BME280;4912;50.836;12.958;2023-08-24T12:34:54;97755.97;;;33.54;36.49
9746;BME280;4912;50.836;12.958;2023-08-24T12:37:27;97747.31;;;33.66;36.56
9746;BME280;4912;50.836;12.958;2023-08-24T12:39:57;97746.91;;;35.27;34.64
9746;BME280;4912;50.836;12.958;2023-08-24T12:42:28;97735.59;;;36.33;32.54
9746;BME280;4912;50.836;12.958;2023-08-24T12:45:04;97735.38;;;36.29;33.06
9746;BME280;4912;50.836;12.958;2023-08-24T12:47:35;97735.22;;;37.70;31.04
9746;BME280;4912;50.836;12.958;2023-08-24T12:50:07;97729.41;;;39.18;28.97
9746;BME280;4912;50.836;12.958;2023-08-24T12:52:41;97713.75;;;39.89;27.71
9746;BME280;4912;50.836;12.958;2023-08-24T12:55:11;97715.09;;;40.79;26.16
9746;BME280;4912;50.836;12.958;2023-08-24T12:57:42;97710.56;;;41.51;25.42
9746;BME280;4912;50.836;12.958;2023-08-24T13:00:14;97700.75;;;42.26;24.73
9746;BME280;4912;50.836;12.958;2023-08-24T13:02:45;97692.19;;;43.02;24.06
9746;BME280;4912;50.836;12.958;2023-08-24T13:05:16;97687.91;;;43.45;22.82
9746;BME280;4912;50.836;12.958;2023-08-24T13:07:49;97684.28;;;43.47;22.84
9746;BME280;4912;50.836;12.958;2023-08-24T13:10:20;97676.78;;;43.76;22.86
9746;BME280;4912;50.836;12.958;2023-08-24T13:12:52;97673.34;;;43.89;22.44
9746;BME280;4912;50.836;12.958;2023-08-24T13:15:23;97663.56;;;44.19;22.33
9746;BME280;4912;50.836;12.958;2023-08-24T13:17:54;97665.66;;;44.64;22.33
9746;BME280;4912;50.836;12.958;2023-08-24T13:20:24;97668.16;;;44.30;21.62
9746;BME280;4912;50.836;12.958;2023-08-24T13:22:58;97657.75;;;43.73;22.22
9746;BME280;4912;50.836;12.958;2023-08-24T13:25:28;97652.78;;;43.35;22.57
9746;BME280;4912;50.836;12.958;2023-08-24T13:27:59;97645.84;;;44.00;22.35
9746;BME280;4912;50.836;12.958;2023-08-24T13:30:30;97648.22;;;44.16;22.03
9746;BME280;4912;50.836;12.958;2023-08-24T13:33:00;97634.22;;;44.04;21.58
9746;BME280;4912;50.836;12.958;2023-08-24T13:35:31;97633.03;;;44.24;21.91
9746;BME280;4912;50.836;12.958;2023-08-24T13:38:04;97621.88;;;44.64;21.44